sensor_id;sensor_type;location;lat;lon;timestamp;P1;durP1;ratioP1;P2;durP2;ratioP2
39994;SDS011;25686;51.908;10.418;2023-04-25T00:00:12;11.97;;;5.40;;
39994;SDS011;25686;51.908;10.418;2023-04-25T00:02:13;21.50;;;5.80;;
39994;SDS011;25686;51.908;10.418;2023-04-25T00:04:14;15.97;;;5.83;;
39994;SDS011;25686;51.908;10.418;2023-04-25T00:06:15;15.57;;;5.43;;
39994;SDS011;25686;51.908;10.418;2023-04-25T00:08:17;17.10;;;5.63;;
39994;SDS011;25686;51.908;10.418;2023-04-25T00:10:19;13.83;;;5.70;;
39994;SDS011;25686;51.908;10.418;2023-04-25T00:12:20;19.90;;;5.80;;
39994;SDS011;25686;51.908;10.418;2023-04-25T00:14:22;12.70;;;5.43;;
39994;SDS011;25686;51.908;10.418;2023-04-25T00:16:23;17.53;;;5.87;;
39994;SDS011;25686;51.908;10.418;2023-04-25T00:18:24;14.37;;;5.50;;
39994;SDS011;25686;51.908;10.418;2023-04-25T00:20:28;16.10;;;6.13;;
39994;SDS011;25686;51.908;10.418;2023-04-25T00:22:30;19.47;;;6.03;;
39994;SDS011;25686;51.908;10.418;2023-04-25T00:24:31;13.93;;;4.97;;
39994;SDS011;25686;51.908;10.418;2023-04-25T00:26:33;16.17;;;5.53;;
39994;SDS011;25686;51.908;10.418;2023-04-25T00:28:34;17.27;;;6.23;;
39994;SDS011;25686;51.908;10.418;2023-04-25T00:30:35;16.60;;;5.73;;
39994;SDS011;25686;51.908;10.418;2023-04-25T00:32:36;11.43;;;5.93;;
39994;SDS011;25686;51.908;10.418;2023-04-25T00:34:37;13.33;;;5.37;;
39994;SDS011;25686;51.908;10.418;2023-04-25T00:36:38;14.03;;;5.77;;
39994;SDS011;25686;51.908;10.418;2023-04-25T00:38:39;21.60;;;5.97;;
39994;SDS011;25686;51.908;10.418;2023-04-25T00:40:40;15.20;;;5.93;;
39994;SDS011;25686;51.908;10.418;2023-04-25T00:42:43;16.53;;;5.77;;
39994;SDS011;25686;51.908;10.418;2023-04-25T00:44:45;19.47;;;6.60;;
39994;SDS011;25686;51.908;10.418;2023-04-25T00:46:49;21.60;;;6.63;;
39994;SDS011;25686;51.908;10.418;2023-04-25T00:48:50;19.10;;;6.10;;
39994;SDS011;25686;51.908;10.418;2023-04-25T00:50:52;15.53;;;5.67;;
39994;SDS011;25686;51.908;10.418;2023-04-25T00:52:54;17.20;;;6.10;;
39994;SDS011;25686;51.908;10.418;2023-04-25T00:54:55;20.47;;;5.80;;
39994;SDS011;25686;51.908;10.418;2023-04-25T00:56:56;15.77;;;6.40;;
39994;SDS011;25686;51.908;10.418;2023-04-25T00:58:57;17.30;;;6.53;;
39994;SDS011;25686;51.908;10.418;2023-04-25T01:00:58;16.03;;;6.50;;
39994;SDS011;25686;51.908;10.418;2023-04-25T01:03:00;13.50;;;6.07;;
39994;SDS011;25686;51.908;10.418;2023-04-25T01:05:03;18.60;;;6.97;;
39994;SDS011;25686;51.908;10.418;2023-04-25T01:07:04;20.60;;;6.83;;
39994;SDS011;25686;51.908;10.418;2023-04-25T01:09:05;18.07;;;6.90;;
39994;SDS011;25686;51.908;10.418;2023-04-25T01:11:06;17.87;;;6.97;;
39994;SDS011;25686;51.908;10.418;2023-04-25T01:13:07;18.17;;;6.70;;
39994;SDS011;25686;51.908;10.418;2023-04-25T01:15:09;17.63;;;7.03;;
39994;SDS011;25686;51.908;10.418;2023-04-25T01:17:10;15.13;;;6.37;;
39994;SDS011;25686;51.908;10.418;2023-04-25T01:19:11;19.10;;;7.30;;
39994;SDS011;25686;51.908;10.418;2023-04-25T01:21:17;16.63;;;6.97;;
39994;SDS011;25686;51.908;10.418;2023-04-25T01:23:18;20.33;;;7.57;;
39994;SDS011;25686;51.908;10.418;2023-04-25T01:25:19;22.17;;;7.47;;
39994;SDS011;25686;51.908;10.418;2023-04-25T01:27:20;15.60;;;7.60;;
39994;SDS011;25686;51.908;10.418;2023-04-25T01:29:22;15.37;;;7.10;;
39994;SDS011;25686;51.908;10.418;2023-04-25T01:31:24;19.70;;;7.63;;
39994;SDS011;25686;51.908;10.418;2023-04-25T01:33:25;21.33;;;8.33;;
39994;SDS011;25686;51.908;10.418;2023-04-25T01:35:26;18.60;;;7.60;;
39994;SDS011;25686;51.908;10.418;2023-04-25T01:37:27;23.63;;;7.43;;
39994;SDS011;25686;51.908;10.418;2023-04-25T01:39:28;15.23;;;7.77;;
39994;SDS011;25686;51.908;10.418;2023-04-25T01:41:30;20.93;;;7.20;;
39994;SDS011;25686;51.908;10.418;2023-04-25T01:43:31;21.70;;;7.80;;
39994;SDS011;25686;51.908;10.418;2023-04-25T01:45:32;22.67;;;6.97;;
39994;SDS011;25686;51.908;10.418;2023-04-25T01:47:33;17.67;;;7.03;;
39994;SDS011;25686;51.908;10.418;2023-04-25T01:49:37;17.67;;;7.57;;
39994;SDS011;25686;51.908;10.418;2023-04-25T01:51:38;22.87;;;7.20;;
39994;SDS011;25686;51.908;10.418;2023-04-25T01:53:39;24.57;;;7.27;;
39994;SDS011;25686;51.908;10.418;2023-04-25T01:55:40;22.90;;;7.27;;
39994;SDS011;25686;51.908;10.418;2023-04-25T01:57:41;18.87;;;7.37;;
39994;SDS011;25686;51.908;10.418;2023-04-25T01:59:42;15.00;;;6.80;;
39994;SDS011;25686;51.908;10.418;2023-04-25T02:01:43;16.10;;;7.60;;
39994;SDS011;25686;51.908;10.418;2023-04-25T02:03:44;12.00;;;6.73;;
39994;SDS011;25686;51.908;10.418;2023-04-25T02:05:45;17.23;;;7.13;;
39994;SDS011;25686;51.908;10.418;2023-04-25T02:07:46;22.60;;;7.50;;
39994;SDS011;25686;51.908;10.418;2023-04-25T02:09:48;22.03;;;7.43;;
39994;SDS011;25686;51.908;10.418;2023-04-25T02:11:49;17.00;;;7.33;;
39994;SDS011;25686;51.908;10.418;2023-04-25T02:13:50;18.13;;;6.73;;
39994;SDS011;25686;51.908;10.418;2023-04-25T02:15:51;14.37;;;6.67;;
39994;SDS011;25686;51.908;10.418;2023-04-25T02:17:52;20.40;;;6.97;;
39994;SDS011;25686;51.908;10.418;2023-04-25T02:19:53;16.83;;;7.13;;
39994;SDS011;25686;51.908;10.418;2023-04-25T02:21:54;17.87;;;6.43;;
39994;SDS011;25686;51.908;10.418;2023-04-25T02:23:57;21.80;;;7.33;;
39994;SDS011;25686;51.908;10.418;2023-04-25T02:25:58;17.53;;;6.57;;
39994;SDS011;25686;51.908;10.418;2023-04-25T02:27:59;15.20;;;6.50;;
39994;SDS011;25686;51.908;10.418;2023-04-25T02:30:00;16.37;;;6.47;;
39994;SDS011;25686;51.908;10.418;2023-04-25T02:32:01;14.50;;;6.10;;
39994;SDS011;25686;51.908;10.418;2023-04-25T02:34:02;19.63;;;6.27;;
39994;SDS011;25686;51.908;10.418;2023-04-25T02:36:03;18.67;;;6.93;;
39994;SDS011;25686;51.908;10.418;2023-04-25T02:38:04;16.93;;;6.10;;
39994;SDS011;25686;51.908;10.418;2023-04-25T02:40:05;20.90;;;6.87;;
39994;SDS011;25686;51.908;10.418;2023-04-25T02:42:06;18.23;;;6.43;;
39994;SDS011;25686;51.908;10.418;2023-04-25T02:44:07;22.13;;;6.43;;
39994;SDS011;25686;51.908;10.418;2023-04-25T02:46:08;17.07;;;6.03;;
39994;SDS011;25686;51.908;10.418;2023-04-25T02:48:09;19.37;;;6.70;;
39994;SDS011;25686;51.908;10.418;2023-04-25T02:50:10;14.70;;;6.27;;
39994;SDS011;25686;51.908;10.418;2023-04-25T02:52:11;14.47;;;6.40;;
39994;SDS011;25686;51.908;10.418;2023-04-25T02:54:12;19.87;;;6.27;;
39994;SDS011;25686;51.908;10.418;2023-04-25T02:56:13;20.80;;;6.70;;
39994;SDS011;25686;51.908;10.418;2023-04-25T02:58:14;15.93;;;6.23;;
39994;SDS011;25686;51.908;10.418;2023-04-25T03:00:15;18.33;;;7.43;;
39994;SDS011;25686;51.908;10.418;2023-04-25T03:02:16;18.13;;;7.23;;
39994;SDS011;25686;51.908;10.418;2023-04-25T03:04:17;20.73;;;7.50;;
39994;SDS011;25686;51.908;10.418;2023-04-25T03:06:19;15.50;;;6.73;;
39994;SDS011;25686;51.908;10.418;2023-04-25T03:08:20;16.20;;;7.13;;
39994;SDS011;25686;51.908;10.418;2023-04-25T03:10:21;19.17;;;8.00;;
39994;SDS011;25686;51.908;10.418;2023-04-25T03:12:22;17.10;;;7.87;;
39994;SDS011;25686;51.908;10.418;2023-04-25T03:14:23;16.07;;;7.07;;
39994;SDS011;25686;51.908;10.418;2023-04-25T03:16:24;20.53;;;7.50;;
39994;SDS011;25686;51.908;10.418;2023-04-25T03:18:25;17.83;;;7.77;;
39994;SDS011;25686;51.908;10.418;2023-04-25T03:20:26;17.00;;;7.70;;
39994;SDS011;25686;51.908;10.418;2023-04-25T03:22:27;19.13;;;7.23;;
39994;SDS011;25686;51.908;10.418;2023-04-25T03:24:28;16.47;;;7.50;;
39994;SDS011;25686;51.908;10.418;2023-04-25T03:26:30;17.20;;;7.37;;
39994;SDS011;25686;51.908;10.418;2023-04-25T03:28:31;20.73;;;8.03;;
39994;SDS011;25686;51.908;10.418;2023-04-25T03:30:32;19.23;;;7.97;;
39994;SDS011;25686;51.908;10.418;2023-04-25T03:32:33;14.80;;;7.70;;
39994;SDS011;25686;51.908;10.418;2023-04-25T03:34:34;18.27;;;7.67;;
39994;SDS011;25686;51.908;10.418;2023-04-25T03:36:35;17.70;;;7.37;;
39994;SDS011;25686;51.908;10.418;2023-04-25T03:38:36;15.40;;;7.57;;
39994;SDS011;25686;51.908;10.418;2023-04-25T03:40:37;16.93;;;7.43;;
39994;SDS011;25686;51.908;10.418;2023-04-25T03:42:38;14.80;;;7.27;;
39994;SDS011;25686;51.908;10.418;2023-04-25T03:44:39;15.73;;;7.43;;
39994;SDS011;25686;51.908;10.418;2023-04-25T03:46:40;16.07;;;6.90;;
39994;SDS011;25686;51.908;10.418;2023-04-25T03:48:41;12.73;;;7.20;;
39994;SDS011;25686;51.908;10.418;2023-04-25T03:50:42;13.80;;;6.93;;
39994;SDS011;25686;51.908;10.418;2023-04-25T03:52:43;14.03;;;7.03;;
39994;SDS011;25686;51.908;10.418;2023-04-25T03:54:44;12.83;;;6.87;;
39994;SDS011;25686;51.908;10.418;2023-04-25T03:56:45;18.77;;;7.30;;
39994;SDS011;25686;51.908;10.418;2023-04-25T03:58:46;11.87;;;7.30;;
39994;SDS011;25686;51.908;10.418;2023-04-25T04:00:47;16.20;;;7.93;;
39994;SDS011;25686;51.908;10.418;2023-04-25T04:02:48;18.33;;;7.93;;
39994;SDS011;25686;51.908;10.418;2023-04-25T04:04:49;15.97;;;8.30;;
39994;SDS011;25686;51.908;10.418;2023-04-25T04:06:50;14.30;;;7.70;;
39994;SDS011;25686;51.908;10.418;2023-04-25T04:08:52;14.83;;;8.50;;
39994;SDS011;25686;51.908;10.418;2023-04-25T04:10:53;14.93;;;7.97;;
39994;SDS011;25686;51.908;10.418;2023-04-25T04:12:54;13.97;;;7.93;;
39994;SDS011;25686;51.908;10.418;2023-04-25T04:14:55;16.60;;;7.37;;
39994;SDS011;25686;51.908;10.418;2023-04-25T04:16:56;16.57;;;7.87;;
39994;SDS011;25686;51.908;10.418;2023-04-25T04:18:57;10.70;;;7.07;;
39994;SDS011;25686;51.908;10.418;2023-04-25T04:20:58;18.33;;;7.63;;
39994;SDS011;25686;51.908;10.418;2023-04-25T04:22:59;12.67;;;6.97;;
39994;SDS011;25686;51.908;10.418;2023-04-25T04:25:01;19.40;;;7.27;;
39994;SDS011;25686;51.908;10.418;2023-04-25T04:27:02;12.80;;;7.50;;
39994;SDS011;25686;51.908;10.418;2023-04-25T04:29:04;13.97;;;7.80;;
39994;SDS011;25686;51.908;10.418;2023-04-25T04:31:05;10.50;;;7.27;;
39994;SDS011;25686;51.908;10.418;2023-04-25T04:33:07;13.67;;;6.93;;
39994;SDS011;25686;51.908;10.418;2023-04-25T04:35:08;12.53;;;7.00;;
39994;SDS011;25686;51.908;10.418;2023-04-25T04:37:11;9.63;;;5.87;;
39994;SDS011;25686;51.908;10.418;2023-04-25T04:39:13;11.00;;;5.60;;
39994;SDS011;25686;51.908;10.418;2023-04-25T04:41:14;12.50;;;5.63;;
39994;SDS011;25686;51.908;10.418;2023-04-25T04:43:15;12.60;;;5.40;;
39994;SDS011;25686;51.908;10.418;2023-04-25T04:45:17;13.77;;;6.27;;
39994;SDS011;25686;51.908;10.418;2023-04-25T04:47:18;15.73;;;6.10;;
39994;SDS011;25686;51.908;10.418;2023-04-25T04:49:20;13.77;;;5.47;;
39994;SDS011;25686;51.908;10.418;2023-04-25T04:51:21;15.60;;;5.63;;
39994;SDS011;25686;51.908;10.418;2023-04-25T04:53:22;13.63;;;6.00;;
39994;SDS011;25686;51.908;10.418;2023-04-25T04:55:23;15.53;;;5.50;;
39994;SDS011;25686;51.908;10.418;2023-04-25T04:57:24;17.47;;;5.83;;
39994;SDS011;25686;51.908;10.418;2023-04-25T04:59:25;17.50;;;5.60;;
39994;SDS011;25686;51.908;10.418;2023-04-25T05:01:26;16.97;;;5.60;;
39994;SDS011;25686;51.908;10.418;2023-04-25T05:03:28;19.17;;;5.97;;
39994;SDS011;25686;51.908;10.418;2023-04-25T05:05:29;14.97;;;5.13;;
39994;SDS011;25686;51.908;10.418;2023-04-25T05:07:30;20.93;;;5.43;;
39994;SDS011;25686;51.908;10.418;2023-04-25T05:09:31;21.30;;;5.07;;
39994;SDS011;25686;51.908;10.418;2023-04-25T05:11:32;20.20;;;5.53;;
39994;SDS011;25686;51.908;10.418;2023-04-25T05:13:33;24.67;;;5.20;;
39994;SDS011;25686;51.908;10.418;2023-04-25T05:15:34;20.63;;;5.30;;
39994;SDS011;25686;51.908;10.418;2023-04-25T05:17:35;20.03;;;5.37;;
39994;SDS011;25686;51.908;10.418;2023-04-25T05:19:36;26.97;;;4.60;;
39994;SDS011;25686;51.908;10.418;2023-04-25T05:21:37;17.83;;;4.60;;
39994;SDS011;25686;51.908;10.418;2023-04-25T05:23:38;26.50;;;5.37;;
39994;SDS011;25686;51.908;10.418;2023-04-25T05:25:39;15.73;;;4.47;;
39994;SDS011;25686;51.908;10.418;2023-04-25T05:27:40;18.17;;;4.43;;
39994;SDS011;25686;51.908;10.418;2023-04-25T05:29:41;31.83;;;5.27;;
39994;SDS011;25686;51.908;10.418;2023-04-25T05:31:42;18.10;;;5.07;;
39994;SDS011;25686;51.908;10.418;2023-04-25T05:33:44;25.40;;;6.60;;
39994;SDS011;25686;51.908;10.418;2023-04-25T05:35:45;20.00;;;5.93;;
39994;SDS011;25686;51.908;10.418;2023-04-25T05:37:46;22.23;;;5.57;;
39994;SDS011;25686;51.908;10.418;2023-04-25T05:39:47;25.23;;;5.57;;
39994;SDS011;25686;51.908;10.418;2023-04-25T05:41:48;22.03;;;5.03;;
39994;SDS011;25686;51.908;10.418;2023-04-25T05:43:49;27.77;;;6.13;;
39994;SDS011;25686;51.908;10.418;2023-04-25T05:45:50;27.53;;;5.13;;
39994;SDS011;25686;51.908;10.418;2023-04-25T05:47:51;29.33;;;5.43;;
39994;SDS011;25686;51.908;10.418;2023-04-25T05:49:52;29.00;;;5.70;;
39994;SDS011;25686;51.908;10.418;2023-04-25T05:51:53;24.10;;;5.30;;
39994;SDS011;25686;51.908;10.418;2023-04-25T05:53:54;26.53;;;5.43;;
39994;SDS011;25686;51.908;10.418;2023-04-25T05:55:55;24.63;;;4.70;;
39994;SDS011;25686;51.908;10.418;2023-04-25T05:57:56;24.97;;;4.90;;
39994;SDS011;25686;51.908;10.418;2023-04-25T05:59:57;20.13;;;4.80;;
39994;SDS011;25686;51.908;10.418;2023-04-25T06:01:58;20.77;;;4.80;;
39994;SDS011;25686;51.908;10.418;2023-04-25T06:04:00;25.23;;;4.93;;
39994;SDS011;25686;51.908;10.418;2023-04-25T06:06:01;21.20;;;4.80;;
39994;SDS011;25686;51.908;10.418;2023-04-25T06:08:02;24.63;;;5.90;;
39994;SDS011;25686;51.908;10.418;2023-04-25T06:10:04;27.23;;;5.27;;
39994;SDS011;25686;51.908;10.418;2023-04-25T06:12:06;27.37;;;4.93;;
39994;SDS011;25686;51.908;10.418;2023-04-25T06:14:07;23.37;;;4.67;;
39994;SDS011;25686;51.908;10.418;2023-04-25T06:16:08;29.60;;;5.17;;
39994;SDS011;25686;51.908;10.418;2023-04-25T06:18:09;21.90;;;4.87;;
39994;SDS011;25686;51.908;10.418;2023-04-25T06:20:10;27.00;;;4.77;;
39994;SDS011;25686;51.908;10.418;2023-04-25T06:22:11;27.17;;;5.43;;
39994;SDS011;25686;51.908;10.418;2023-04-25T06:24:12;25.10;;;4.60;;
39994;SDS011;25686;51.908;10.418;2023-04-25T06:26:13;29.07;;;5.13;;
39994;SDS011;25686;51.908;10.418;2023-04-25T06:28:14;22.00;;;4.40;;
39994;SDS011;25686;51.908;10.418;2023-04-25T06:30:15;22.03;;;5.27;;
39994;SDS011;25686;51.908;10.418;2023-04-25T06:32:18;26.80;;;5.10;;
39994;SDS011;25686;51.908;10.418;2023-04-25T06:34:19;28.77;;;4.80;;
39994;SDS011;25686;51.908;10.418;2023-04-25T06:36:20;24.47;;;4.77;;
39994;SDS011;25686;51.908;10.418;2023-04-25T06:38:25;22.13;;;4.60;;
39994;SDS011;25686;51.908;10.418;2023-04-25T06:40:26;23.67;;;4.57;;
39994;SDS011;25686;51.908;10.418;2023-04-25T06:42:27;23.67;;;4.50;;
39994;SDS011;25686;51.908;10.418;2023-04-25T06:44:28;22.77;;;4.93;;
39994;SDS011;25686;51.908;10.418;2023-04-25T06:46:30;23.60;;;4.57;;
39994;SDS011;25686;51.908;10.418;2023-04-25T06:48:31;25.50;;;4.80;;
39994;SDS011;25686;51.908;10.418;2023-04-25T06:50:33;28.13;;;4.90;;
39994;SDS011;25686;51.908;10.418;2023-04-25T06:52:34;26.70;;;4.77;;
39994;SDS011;25686;51.908;10.418;2023-04-25T06:54:35;19.60;;;4.53;;
39994;SDS011;25686;51.908;10.418;2023-04-25T06:56:36;27.77;;;5.00;;
39994;SDS011;25686;51.908;10.418;2023-04-25T06:58:37;23.83;;;5.17;;
39994;SDS011;25686;51.908;10.418;2023-04-25T07:00:38;20.43;;;4.33;;
39994;SDS011;25686;51.908;10.418;2023-04-25T07:02:39;25.83;;;5.40;;
39994;SDS011;25686;51.908;10.418;2023-04-25T07:04:42;23.53;;;4.97;;
39994;SDS011;25686;51.908;10.418;2023-04-25T07:06:43;26.53;;;4.70;;
39994;SDS011;25686;51.908;10.418;2023-04-25T07:08:44;33.33;;;4.90;;
39994;SDS011;25686;51.908;10.418;2023-04-25T07:10:45;24.20;;;4.40;;
39994;SDS011;25686;51.908;10.418;2023-04-25T07:12:46;24.27;;;4.90;;
39994;SDS011;25686;51.908;10.418;2023-04-25T07:14:47;22.43;;;4.37;;
39994;SDS011;25686;51.908;10.418;2023-04-25T07:16:48;20.63;;;4.20;;
39994;SDS011;25686;51.908;10.418;2023-04-25T07:18:49;22.67;;;4.83;;
39994;SDS011;25686;51.908;10.418;2023-04-25T07:20:51;25.03;;;4.43;;
39994;SDS011;25686;51.908;10.418;2023-04-25T07:22:52;25.60;;;4.60;;
39994;SDS011;25686;51.908;10.418;2023-04-25T07:24:53;27.50;;;4.63;;
39994;SDS011;25686;51.908;10.418;2023-04-25T07:26:53;20.57;;;4.23;;
39994;SDS011;25686;51.908;10.418;2023-04-25T07:28:54;20.60;;;4.40;;
39994;SDS011;25686;51.908;10.418;2023-04-25T07:30:55;28.80;;;4.47;;
39994;SDS011;25686;51.908;10.418;2023-04-25T07:32:58;23.77;;;4.13;;
39994;SDS011;25686;51.908;10.418;2023-04-25T07:34:58;21.40;;;4.20;;
39994;SDS011;25686;51.908;10.418;2023-04-25T07:36:59;20.47;;;4.20;;
39994;SDS011;25686;51.908;10.418;2023-04-25T07:39:01;23.20;;;4.40;;
39994;SDS011;25686;51.908;10.418;2023-04-25T07:41:01;23.02;;;4.15;;
39994;SDS011;25686;51.908;10.418;2023-04-25T07:43:02;14.53;;;3.87;;
39994;SDS011;25686;51.908;10.418;2023-04-25T07:45:03;28.73;;;5.80;;
39994;SDS011;25686;51.908;10.418;2023-04-25T07:47:05;23.00;;;4.03;;
39994;SDS011;25686;51.908;10.418;2023-04-25T07:49:09;22.02;;;4.20;;
39994;SDS011;25686;51.908;10.418;2023-04-25T07:51:10;18.90;;;3.95;;
39994;SDS011;25686;51.908;10.418;2023-04-25T07:53:11;17.23;;;3.38;;
39994;SDS011;25686;51.908;10.418;2023-04-25T07:55:12;17.83;;;3.55;;
39994;SDS011;25686;51.908;10.418;2023-04-25T07:57:13;23.58;;;3.78;;
39994;SDS011;25686;51.908;10.418;2023-04-25T07:59:14;18.05;;;2.85;;
39994;SDS011;25686;51.908;10.418;2023-04-25T08:01:15;18.58;;;3.33;;
39994;SDS011;25686;51.908;10.418;2023-04-25T08:03:16;11.25;;;2.65;;
39994;SDS011;25686;51.908;10.418;2023-04-25T08:05:17;14.90;;;3.17;;
39994;SDS011;25686;51.908;10.418;2023-04-25T08:07:18;11.75;;;2.88;;
39994;SDS011;25686;51.908;10.418;2023-04-25T08:09:20;10.50;;;2.90;;
39994;SDS011;25686;51.908;10.418;2023-04-25T08:11:21;11.90;;;3.05;;
39994;SDS011;25686;51.908;10.418;2023-04-25T08:13:22;10.73;;;3.00;;
39994;SDS011;25686;51.908;10.418;2023-04-25T08:15:23;13.13;;;2.97;;
39994;SDS011;25686;51.908;10.418;2023-04-25T08:17:24;9.93;;;3.00;;
39994;SDS011;25686;51.908;10.418;2023-04-25T08:19:25;17.38;;;2.88;;
39994;SDS011;25686;51.908;10.418;2023-04-25T08:21:26;16.27;;;3.20;;
39994;SDS011;25686;51.908;10.418;2023-04-25T08:23:27;18.63;;;3.17;;
39994;SDS011;25686;51.908;10.418;2023-04-25T08:25:28;11.93;;;3.08;;
39994;SDS011;25686;51.908;10.418;2023-04-25T08:27:32;18.65;;;3.53;;
39994;SDS011;25686;51.908;10.418;2023-04-25T08:29:34;14.15;;;2.65;;
39994;SDS011;25686;51.908;10.418;2023-04-25T08:31:43;15.15;;;3.10;;
39994;SDS011;25686;51.908;10.418;2023-04-25T08:33:44;14.70;;;3.20;;
39994;SDS011;25686;51.908;10.418;2023-04-25T08:35:48;14.20;;;2.78;;
39994;SDS011;25686;51.908;10.418;2023-04-25T08:37:49;13.85;;;2.72;;
39994;SDS011;25686;51.908;10.418;2023-04-25T08:39:51;13.70;;;2.75;;
39994;SDS011;25686;51.908;10.418;2023-04-25T08:41:53;10.40;;;2.13;;
39994;SDS011;25686;51.908;10.418;2023-04-25T08:43:54;12.32;;;2.67;;
39994;SDS011;25686;51.908;10.418;2023-04-25T08:46:00;13.05;;;2.65;;
39994;SDS011;25686;51.908;10.418;2023-04-25T08:48:10;14.38;;;2.83;;
39994;SDS011;25686;51.908;10.418;2023-04-25T08:50:11;9.63;;;2.22;;
39994;SDS011;25686;51.908;10.418;2023-04-25T08:52:12;12.93;;;2.58;;
39994;SDS011;25686;51.908;10.418;2023-04-25T08:54:14;10.60;;;2.42;;
39994;SDS011;25686;51.908;10.418;2023-04-25T08:56:15;13.95;;;2.60;;
39994;SDS011;25686;51.908;10.418;2023-04-25T08:58:22;12.02;;;2.72;;
39994;SDS011;25686;51.908;10.418;2023-04-25T09:00:23;9.18;;;2.53;;
39994;SDS011;25686;51.908;10.418;2023-04-25T09:02:24;12.73;;;3.33;;
39994;SDS011;25686;51.908;10.418;2023-04-25T09:04:25;15.20;;;2.60;;
39994;SDS011;25686;51.908;10.418;2023-04-25T09:06:27;10.80;;;2.45;;
39994;SDS011;25686;51.908;10.418;2023-04-25T09:08:29;16.52;;;3.03;;
39994;SDS011;25686;51.908;10.418;2023-04-25T09:10:30;8.20;;;2.42;;
39994;SDS011;25686;51.908;10.418;2023-04-25T09:12:31;17.38;;;2.53;;
39994;SDS011;25686;51.908;10.418;2023-04-25T09:14:32;18.63;;;2.55;;
39994;SDS011;25686;51.908;10.418;2023-04-25T09:16:33;7.18;;;2.40;;
39994;SDS011;25686;51.908;10.418;2023-04-25T09:18:35;15.90;;;2.35;;
39994;SDS011;25686;51.908;10.418;2023-04-25T09:20:41;8.02;;;2.22;;
39994;SDS011;25686;51.908;10.418;2023-04-25T09:22:42;14.18;;;3.00;;
39994;SDS011;25686;51.908;10.418;2023-04-25T09:24:46;11.48;;;2.58;;
39994;SDS011;25686;51.908;10.418;2023-04-25T09:26:48;13.35;;;2.47;;
39994;SDS011;25686;51.908;10.418;2023-04-25T09:28:49;12.73;;;2.42;;
39994;SDS011;25686;51.908;10.418;2023-04-25T09:31:05;9.02;;;2.40;;
39994;SDS011;25686;51.908;10.418;2023-04-25T09:33:06;10.57;;;2.60;;
39994;SDS011;25686;51.908;10.418;2023-04-25T09:35:07;11.50;;;2.80;;
39994;SDS011;25686;51.908;10.418;2023-04-25T09:37:09;11.82;;;2.50;;
39994;SDS011;25686;51.908;10.418;2023-04-25T09:39:12;10.63;;;2.10;;
39994;SDS011;25686;51.908;10.418;2023-04-25T09:41:22;8.18;;;2.40;;
39994;SDS011;25686;51.908;10.418;2023-04-25T09:43:24;7.65;;;1.85;;
39994;SDS011;25686;51.908;10.418;2023-04-25T09:45:25;6.07;;;1.80;;
39994;SDS011;25686;51.908;10.418;2023-04-25T09:47:26;6.60;;;2.00;;
39994;SDS011;25686;51.908;10.418;2023-04-25T09:49:28;9.30;;;2.13;;
39994;SDS011;25686;51.908;10.418;2023-04-25T09:51:29;10.48;;;1.88;;
39994;SDS011;25686;51.908;10.418;2023-04-25T09:53:30;8.50;;;1.63;;
39994;SDS011;25686;51.908;10.418;2023-04-25T09:55:32;5.70;;;1.60;;
39994;SDS011;25686;51.908;10.418;2023-04-25T09:57:33;9.27;;;1.58;;
39994;SDS011;25686;51.908;10.418;2023-04-25T09:59:42;7.95;;;1.85;;
39994;SDS011;25686;51.908;10.418;2023-04-25T10:01:43;7.55;;;1.50;;
39994;SDS011;25686;51.908;10.418;2023-04-25T10:03:45;9.32;;;1.88;;
39994;SDS011;25686;51.908;10.418;2023-04-25T10:05:48;9.07;;;1.73;;
39994;SDS011;25686;51.908;10.418;2023-04-25T10:07:52;8.40;;;2.00;;
39994;SDS011;25686;51.908;10.418;2023-04-25T10:10:00;9.75;;;1.77;;
39994;SDS011;25686;51.908;10.418;2023-04-25T10:12:03;5.35;;;1.73;;
39994;SDS011;25686;51.908;10.418;2023-04-25T10:14:04;7.75;;;1.73;;
39994;SDS011;25686;51.908;10.418;2023-04-25T10:16:05;7.65;;;1.92;;
39994;SDS011;25686;51.908;10.418;2023-04-25T10:18:06;7.60;;;1.90;;
39994;SDS011;25686;51.908;10.418;2023-04-25T10:20:08;10.20;;;1.77;;
39994;SDS011;25686;51.908;10.418;2023-04-25T10:24:14;9.43;;;2.10;;
39994;SDS011;25686;51.908;10.418;2023-04-25T10:26:15;10.32;;;2.08;;
39994;SDS011;25686;51.908;10.418;2023-04-25T10:28:17;9.05;;;1.85;;
39994;SDS011;25686;51.908;10.418;2023-04-25T10:30:18;7.90;;;1.95;;
39994;SDS011;25686;51.908;10.418;2023-04-25T10:32:19;6.63;;;1.92;;
39994;SDS011;25686;51.908;10.418;2023-04-25T10:34:23;10.60;;;1.85;;
39994;SDS011;25686;51.908;10.418;2023-04-25T10:36:24;9.40;;;2.38;;
39994;SDS011;25686;51.908;10.418;2023-04-25T10:38:27;6.20;;;1.73;;
39994;SDS011;25686;51.908;10.418;2023-04-25T10:40:28;12.48;;;1.88;;
39994;SDS011;25686;51.908;10.418;2023-04-25T10:42:29;6.80;;;1.92;;
39994;SDS011;25686;51.908;10.418;2023-04-25T10:44:31;10.27;;;2.20;;
39994;SDS011;25686;51.908;10.418;2023-04-25T10:46:32;14.30;;;2.20;;
39994;SDS011;25686;51.908;10.418;2023-04-25T10:48:35;10.05;;;1.98;;
39994;SDS011;25686;51.908;10.418;2023-04-25T10:50:37;10.82;;;2.25;;
39994;SDS011;25686;51.908;10.418;2023-04-25T10:52:39;12.10;;;2.58;;
39994;SDS011;25686;51.908;10.418;2023-04-25T10:54:47;9.82;;;1.90;;
39994;SDS011;25686;51.908;10.418;2023-04-25T10:56:48;7.05;;;1.92;;
39994;SDS011;25686;51.908;10.418;2023-04-25T10:58:49;8.85;;;1.80;;
39994;SDS011;25686;51.908;10.418;2023-04-25T11:00:50;8.75;;;1.70;;
39994;SDS011;25686;51.908;10.418;2023-04-25T11:02:52;7.38;;;1.88;;
39994;SDS011;25686;51.908;10.418;2023-04-25T11:04:53;8.40;;;1.98;;
39994;SDS011;25686;51.908;10.418;2023-04-25T11:08:59;7.72;;;1.90;;
39994;SDS011;25686;51.908;10.418;2023-04-25T11:11:01;7.05;;;2.33;;
39994;SDS011;25686;51.908;10.418;2023-04-25T11:13:03;9.65;;;1.98;;
39994;SDS011;25686;51.908;10.418;2023-04-25T11:15:04;9.50;;;2.05;;
39994;SDS011;25686;51.908;10.418;2023-04-25T11:17:06;9.05;;;1.90;;
39994;SDS011;25686;51.908;10.418;2023-04-25T11:19:07;7.72;;;1.80;;
39994;SDS011;25686;51.908;10.418;2023-04-25T11:21:08;7.45;;;1.88;;
39994;SDS011;25686;51.908;10.418;2023-04-25T11:23:10;8.35;;;1.88;;
39994;SDS011;25686;51.908;10.418;2023-04-25T11:25:11;6.57;;;1.73;;
39994;SDS011;25686;51.908;10.418;2023-04-25T11:27:12;11.73;;;2.10;;
39994;SDS011;25686;51.908;10.418;2023-04-25T11:29:13;10.30;;;2.33;;
39994;SDS011;25686;51.908;10.418;2023-04-25T11:31:14;12.40;;;1.90;;
39994;SDS011;25686;51.908;10.418;2023-04-25T11:33:16;10.27;;;2.20;;
39994;SDS011;25686;51.908;10.418;2023-04-25T11:35:18;9.52;;;2.20;;
39994;SDS011;25686;51.908;10.418;2023-04-25T11:37:20;5.28;;;1.63;;
39994;SDS011;25686;51.908;10.418;2023-04-25T11:39:23;6.32;;;1.83;;
39994;SDS011;25686;51.908;10.418;2023-04-25T11:41:25;8.65;;;1.60;;
39994;SDS011;25686;51.908;10.418;2023-04-25T11:43:26;6.03;;;1.65;;
39994;SDS011;25686;51.908;10.418;2023-04-25T11:45:28;8.15;;;2.03;;
39994;SDS011;25686;51.908;10.418;2023-04-25T11:47:30;7.32;;;1.70;;
39994;SDS011;25686;51.908;10.418;2023-04-25T11:49:32;7.22;;;2.00;;
39994;SDS011;25686;51.908;10.418;2023-04-25T11:51:39;7.20;;;1.70;;
39994;SDS011;25686;51.908;10.418;2023-04-25T11:53:40;8.55;;;2.08;;
39994;SDS011;25686;51.908;10.418;2023-04-25T11:55:42;9.75;;;1.98;;